sensor_id;sensor_type;location;lat;lon;timestamp;P1;durP1;ratioP1;P2;durP2;ratioP2
52764;SDS011;38650;44.536;18.664;2022-12-29T00:01:30;48.08;;;32.13;;
52764;SDS011;38650;44.536;18.664;2022-12-29T00:03:56;57.53;;;37.47;;
52764;SDS011;38650;44.536;18.664;2022-12-29T00:06:22;60.25;;;40.22;;
52764;SDS011;38650;44.536;18.664;2022-12-29T00:08:48;46.97;;;33.55;;
52764;SDS011;38650;44.536;18.664;2022-12-29T00:11:15;49.45;;;33.47;;
52764;SDS011;38650;44.536;18.664;2022-12-29T00:13:42;48.20;;;32.80;;
52764;SDS011;38650;44.536;18.664;2022-12-29T00:16:27;59.90;;;39.78;;
52764;SDS011;38650;44.536;18.664;2022-12-29T00:18:53;48.03;;;33.28;;
52764;SDS011;38650;44.536;18.664;2022-12-29T00:21:20;45.85;;;32.17;;
52764;SDS011;38650;44.536;18.664;2022-12-29T00:24:05;48.53;;;33.08;;
52764;SDS011;38650;44.536;18.664;2022-12-29T00:26:53;46.38;;;32.85;;
52764;SDS011;38650;44.536;18.664;2022-12-29T00:29:41;49.22;;;34.75;;
52764;SDS011;38650;44.536;18.664;2022-12-29T00:32:25;46.88;;;33.45;;
52764;SDS011;38650;44.536;18.664;2022-12-29T00:35:10;64.38;;;41.25;;
52764;SDS011;38650;44.536;18.664;2022-12-29T00:37:44;67.60;;;44.65;;
52764;SDS011;38650;44.536;18.664;2022-12-29T00:40:31;59.28;;;38.92;;
52764;SDS011;38650;44.536;18.664;2022-12-29T00:43:16;53.20;;;35.97;;
52764;SDS011;38650;44.536;18.664;2022-12-29T00:48:25;53.35;;;35.53;;
52764;SDS011;38650;44.536;18.664;2022-12-29T00:51:09;64.72;;;45.13;;
52764;SDS011;38650;44.536;18.664;2022-12-29T00:53:35;72.22;;;48.30;;
52764;SDS011;38650;44.536;18.664;2022-12-29T00:56:01;71.43;;;46.10;;
52764;SDS011;38650;44.536;18.664;2022-12-29T00:58:30;54.95;;;38.28;;
52764;SDS011;38650;44.536;18.664;2022-12-29T01:01:05;56.15;;;37.65;;
52764;SDS011;38650;44.536;18.664;2022-12-29T01:03:33;66.60;;;44.25;;
52764;SDS011;38650;44.536;18.664;2022-12-29T01:06:00;86.55;;;55.95;;
52764;SDS011;38650;44.536;18.664;2022-12-29T01:08:29;72.97;;;48.50;;
52764;SDS011;38650;44.536;18.664;2022-12-29T01:11:03;126.88;;;74.93;;
52764;SDS011;38650;44.536;18.664;2022-12-29T01:13:31;89.82;;;56.00;;
52764;SDS011;38650;44.536;18.664;2022-12-29T01:15:57;74.38;;;50.30;;
52764;SDS011;38650;44.536;18.664;2022-12-29T01:18:23;67.30;;;46.42;;
52764;SDS011;38650;44.536;18.664;2022-12-29T01:20:49;69.30;;;46.00;;
52764;SDS011;38650;44.536;18.664;2022-12-29T01:23:15;78.38;;;50.90;;
52764;SDS011;38650;44.536;18.664;2022-12-29T01:25:41;72.82;;;47.35;;
52764;SDS011;38650;44.536;18.664;2022-12-29T01:28:07;73.18;;;49.13;;
52764;SDS011;38650;44.536;18.664;2022-12-29T01:30:35;80.82;;;51.83;;
52764;SDS011;38650;44.536;18.664;2022-12-29T01:33:01;65.18;;;43.58;;
52764;SDS011;38650;44.536;18.664;2022-12-29T01:35:28;69.20;;;48.17;;
52764;SDS011;38650;44.536;18.664;2022-12-29T01:37:54;73.75;;;48.92;;
52764;SDS011;38650;44.536;18.664;2022-12-29T01:40:19;58.05;;;40.40;;
52764;SDS011;38650;44.536;18.664;2022-12-29T01:42:45;55.85;;;38.40;;
52764;SDS011;38650;44.536;18.664;2022-12-29T01:45:12;53.20;;;36.95;;
52764;SDS011;38650;44.536;18.664;2022-12-29T01:50:12;54.05;;;35.75;;
52764;SDS011;38650;44.536;18.664;2022-12-29T01:52:59;51.28;;;35.85;;
52764;SDS011;38650;44.536;18.664;2022-12-29T01:55:33;47.67;;;34.30;;
52764;SDS011;38650;44.536;18.664;2022-12-29T01:58:03;48.72;;;32.72;;
52764;SDS011;38650;44.536;18.664;2022-12-29T02:00:30;51.13;;;36.03;;
52764;SDS011;38650;44.536;18.664;2022-12-29T02:02:56;52.47;;;35.78;;
52764;SDS011;38650;44.536;18.664;2022-12-29T02:07:50;54.70;;;37.50;;
52764;SDS011;38650;44.536;18.664;2022-12-29T02:10:19;62.22;;;42.30;;
52764;SDS011;38650;44.536;18.664;2022-12-29T02:12:49;76.25;;;47.55;;
52764;SDS011;38650;44.536;18.664;2022-12-29T02:15:16;72.40;;;48.33;;
52764;SDS011;38650;44.536;18.664;2022-12-29T02:20:49;63.85;;;42.38;;
52764;SDS011;38650;44.536;18.664;2022-12-29T02:34:28;106.30;;;67.40;;
52764;SDS011;38650;44.536;18.664;2022-12-29T02:37:22;81.57;;;51.45;;
52764;SDS011;38650;44.536;18.664;2022-12-29T02:40:00;63.70;;;42.38;;
52764;SDS011;38650;44.536;18.664;2022-12-29T02:50:31;65.70;;;42.60;;
52764;SDS011;38650;44.536;18.664;2022-12-29T02:53:02;54.23;;;37.43;;
52764;SDS011;38650;44.536;18.664;2022-12-29T02:55:31;64.68;;;43.95;;
52764;SDS011;38650;44.536;18.664;2022-12-29T03:00:55;58.45;;;37.90;;
52764;SDS011;38650;44.536;18.664;2022-12-29T03:08:51;38.03;;;26.42;;
52764;SDS011;38650;44.536;18.664;2022-12-29T03:12:40;42.97;;;28.98;;
52764;SDS011;38650;44.536;18.664;2022-12-29T03:20:45;30.00;;;21.75;;
52764;SDS011;38650;44.536;18.664;2022-12-29T03:23:17;40.65;;;26.20;;
52764;SDS011;38650;44.536;18.664;2022-12-29T03:25:50;40.60;;;28.02;;
52764;SDS011;38650;44.536;18.664;2022-12-29T03:29:01;36.45;;;26.63;;
52764;SDS011;38650;44.536;18.664;2022-12-29T03:31:11;34.78;;;26.23;;
52764;SDS011;38650;44.536;18.664;2022-12-29T03:33:38;45.38;;;31.73;;
52764;SDS011;38650;44.536;18.664;2022-12-29T03:36:07;53.92;;;36.10;;
52764;SDS011;38650;44.536;18.664;2022-12-29T03:38:49;52.35;;;36.58;;
52764;SDS011;38650;44.536;18.664;2022-12-29T03:41:23;40.75;;;29.13;;
52764;SDS011;38650;44.536;18.664;2022-12-29T03:43:53;27.73;;;21.13;;
52764;SDS011;38650;44.536;18.664;2022-12-29T03:46:19;26.67;;;19.48;;
52764;SDS011;38650;44.536;18.664;2022-12-29T03:48:45;24.25;;;17.80;;
52764;SDS011;38650;44.536;18.664;2022-12-29T03:51:10;23.30;;;17.17;;
52764;SDS011;38650;44.536;18.664;2022-12-29T03:53:36;22.00;;;15.65;;
52764;SDS011;38650;44.536;18.664;2022-12-29T03:56:02;19.50;;;14.45;;
52764;SDS011;38650;44.536;18.664;2022-12-29T03:58:27;18.35;;;13.63;;
52764;SDS011;38650;44.536;18.664;2022-12-29T04:00:53;14.90;;;12.25;;
52764;SDS011;38650;44.536;18.664;2022-12-29T04:03:19;17.42;;;13.30;;
52764;SDS011;38650;44.536;18.664;2022-12-29T04:05:44;18.83;;;13.82;;
52764;SDS011;38650;44.536;18.664;2022-12-29T04:08:10;18.15;;;13.68;;
52764;SDS011;38650;44.536;18.664;2022-12-29T04:10:36;14.88;;;12.38;;
52764;SDS011;38650;44.536;18.664;2022-12-29T04:13:01;21.42;;;15.35;;
52764;SDS011;38650;44.536;18.664;2022-12-29T04:15:27;16.98;;;13.20;;
52764;SDS011;38650;44.536;18.664;2022-12-29T04:17:53;25.40;;;17.70;;
52764;SDS011;38650;44.536;18.664;2022-12-29T04:20:18;34.40;;;23.33;;
52764;SDS011;38650;44.536;18.664;2022-12-29T04:23:03;32.63;;;21.50;;
52764;SDS011;38650;44.536;18.664;2022-12-29T04:25:30;43.80;;;28.73;;
52764;SDS011;38650;44.536;18.664;2022-12-29T04:27:56;29.40;;;21.63;;
52764;SDS011;38650;44.536;18.664;2022-12-29T04:30:22;29.20;;;19.73;;
52764;SDS011;38650;44.536;18.664;2022-12-29T04:32:48;26.35;;;19.45;;
52764;SDS011;38650;44.536;18.664;2022-12-29T04:35:14;26.85;;;18.83;;
52764;SDS011;38650;44.536;18.664;2022-12-29T04:37:40;22.73;;;16.90;;
52764;SDS011;38650;44.536;18.664;2022-12-29T04:40:06;26.65;;;17.60;;
52764;SDS011;38650;44.536;18.664;2022-12-29T04:42:32;22.63;;;16.30;;
52764;SDS011;38650;44.536;18.664;2022-12-29T04:44:58;26.05;;;16.92;;
52764;SDS011;38650;44.536;18.664;2022-12-29T04:47:24;38.55;;;25.83;;
52764;SDS011;38650;44.536;18.664;2022-12-29T04:49:49;35.08;;;23.55;;
52764;SDS011;38650;44.536;18.664;2022-12-29T04:52:15;28.80;;;20.75;;
52764;SDS011;38650;44.536;18.664;2022-12-29T04:54:41;26.40;;;19.45;;
52764;SDS011;38650;44.536;18.664;2022-12-29T04:57:06;25.23;;;17.85;;
52764;SDS011;38650;44.536;18.664;2022-12-29T04:59:32;29.63;;;20.27;;
52764;SDS011;38650;44.536;18.664;2022-12-29T05:01:58;24.00;;;17.83;;
52764;SDS011;38650;44.536;18.664;2022-12-29T05:04:24;23.85;;;16.52;;
52764;SDS011;38650;44.536;18.664;2022-12-29T05:06:49;23.40;;;16.58;;
52764;SDS011;38650;44.536;18.664;2022-12-29T05:09:15;24.02;;;17.27;;
52764;SDS011;38650;44.536;18.664;2022-12-29T05:11:41;29.15;;;19.50;;
52764;SDS011;38650;44.536;18.664;2022-12-29T05:14:06;29.35;;;18.90;;
52764;SDS011;38650;44.536;18.664;2022-12-29T05:16:32;26.92;;;17.98;;
52764;SDS011;38650;44.536;18.664;2022-12-29T05:18:58;25.20;;;17.38;;
52764;SDS011;38650;44.536;18.664;2022-12-29T05:21:24;28.73;;;18.45;;
52764;SDS011;38650;44.536;18.664;2022-12-29T05:23:50;27.17;;;16.80;;
52764;SDS011;38650;44.536;18.664;2022-12-29T05:26:16;33.65;;;19.40;;
52764;SDS011;38650;44.536;18.664;2022-12-29T05:28:41;21.67;;;16.25;;
52764;SDS011;38650;44.536;18.664;2022-12-29T05:31:07;26.23;;;17.55;;
52764;SDS011;38650;44.536;18.664;2022-12-29T05:33:33;24.70;;;17.70;;
52764;SDS011;38650;44.536;18.664;2022-12-29T05:36:05;24.77;;;17.80;;
52764;SDS011;38650;44.536;18.664;2022-12-29T05:38:32;26.73;;;18.10;;
52764;SDS011;38650;44.536;18.664;2022-12-29T05:40:58;34.15;;;22.58;;
52764;SDS011;38650;44.536;18.664;2022-12-29T05:43:23;28.33;;;18.90;;
52764;SDS011;38650;44.536;18.664;2022-12-29T05:45:49;41.80;;;25.25;;
52764;SDS011;38650;44.536;18.664;2022-12-29T05:48:15;34.65;;;23.60;;
52764;SDS011;38650;44.536;18.664;2022-12-29T05:50:40;53.53;;;31.67;;
52764;SDS011;38650;44.536;18.664;2022-12-29T05:53:06;40.35;;;27.88;;
52764;SDS011;38650;44.536;18.664;2022-12-29T05:55:32;43.63;;;28.65;;
52764;SDS011;38650;44.536;18.664;2022-12-29T05:57:58;68.47;;;41.92;;
52764;SDS011;38650;44.536;18.664;2022-12-29T06:00:23;81.55;;;49.65;;
52764;SDS011;38650;44.536;18.664;2022-12-29T06:02:49;59.13;;;40.63;;
52764;SDS011;38650;44.536;18.664;2022-12-29T06:05:15;95.15;;;61.30;;
52764;SDS011;38650;44.536;18.664;2022-12-29T06:07:41;156.50;;;102.53;;
52764;SDS011;38650;44.536;18.664;2022-12-29T06:10:07;105.28;;;74.70;;
52764;SDS011;38650;44.536;18.664;2022-12-29T06:12:33;86.13;;;61.30;;
52764;SDS011;38650;44.536;18.664;2022-12-29T06:14:59;81.10;;;53.45;;
52764;SDS011;38650;44.536;18.664;2022-12-29T06:17:24;65.35;;;42.78;;
52764;SDS011;38650;44.536;18.664;2022-12-29T06:19:50;114.55;;;75.65;;
52764;SDS011;38650;44.536;18.664;2022-12-29T06:22:16;107.93;;;72.35;;
52764;SDS011;38650;44.536;18.664;2022-12-29T06:24:42;93.13;;;60.13;;
52764;SDS011;38650;44.536;18.664;2022-12-29T06:27:08;86.32;;;54.00;;
52764;SDS011;38650;44.536;18.664;2022-12-29T06:29:33;71.55;;;48.17;;
52764;SDS011;38650;44.536;18.664;2022-12-29T06:32:01;62.25;;;42.45;;
52764;SDS011;38650;44.536;18.664;2022-12-29T06:34:26;56.08;;;38.83;;
52764;SDS011;38650;44.536;18.664;2022-12-29T06:36:52;55.90;;;35.97;;
52764;SDS011;38650;44.536;18.664;2022-12-29T06:39:18;48.67;;;32.45;;
52764;SDS011;38650;44.536;18.664;2022-12-29T06:41:43;56.88;;;41.50;;
52764;SDS011;38650;44.536;18.664;2022-12-29T06:44:09;77.03;;;50.30;;
52764;SDS011;38650;44.536;18.664;2022-12-29T06:46:35;83.18;;;52.72;;
52764;SDS011;38650;44.536;18.664;2022-12-29T06:49:01;128.80;;;80.32;;
52764;SDS011;38650;44.536;18.664;2022-12-29T06:51:27;106.15;;;68.28;;
52764;SDS011;38650;44.536;18.664;2022-12-29T06:53:53;103.35;;;64.28;;
52764;SDS011;38650;44.536;18.664;2022-12-29T06:56:18;117.75;;;75.15;;
52764;SDS011;38650;44.536;18.664;2022-12-29T06:58:45;101.72;;;67.55;;
52764;SDS011;38650;44.536;18.664;2022-12-29T07:01:11;77.75;;;54.53;;
52764;SDS011;38650;44.536;18.664;2022-12-29T07:03:36;79.53;;;55.75;;
52764;SDS011;38650;44.536;18.664;2022-12-29T07:06:02;94.05;;;59.00;;
52764;SDS011;38650;44.536;18.664;2022-12-29T07:08:28;73.00;;;48.83;;
52764;SDS011;38650;44.536;18.664;2022-12-29T07:10:54;63.30;;;43.92;;
52764;SDS011;38650;44.536;18.664;2022-12-29T07:13:20;58.40;;;40.53;;
52764;SDS011;38650;44.536;18.664;2022-12-29T07:15:46;62.90;;;41.22;;
52764;SDS011;38650;44.536;18.664;2022-12-29T07:18:11;48.58;;;35.53;;
52764;SDS011;38650;44.536;18.664;2022-12-29T07:20:37;43.85;;;32.08;;
52764;SDS011;38650;44.536;18.664;2022-12-29T07:23:03;73.68;;;49.42;;
52764;SDS011;38650;44.536;18.664;2022-12-29T07:25:28;50.10;;;35.47;;
52764;SDS011;38650;44.536;18.664;2022-12-29T07:27:54;68.95;;;47.42;;
52764;SDS011;38650;44.536;18.664;2022-12-29T07:30:20;52.30;;;37.88;;
52764;SDS011;38650;44.536;18.664;2022-12-29T07:32:46;53.22;;;38.42;;
52764;SDS011;38650;44.536;18.664;2022-12-29T07:35:11;60.38;;;40.95;;
52764;SDS011;38650;44.536;18.664;2022-12-29T07:37:37;97.43;;;59.33;;
52764;SDS011;38650;44.536;18.664;2022-12-29T07:40:03;164.10;;;107.68;;
52764;SDS011;38650;44.536;18.664;2022-12-29T07:42:30;131.32;;;91.13;;
52764;SDS011;38650;44.536;18.664;2022-12-29T07:44:56;273.67;;;184.15;;
52764;SDS011;38650;44.536;18.664;2022-12-29T07:47:22;285.50;;;204.50;;
52764;SDS011;38650;44.536;18.664;2022-12-29T07:49:47;259.67;;;179.10;;
52764;SDS011;38650;44.536;18.664;2022-12-29T07:52:13;191.27;;;138.30;;
52764;SDS011;38650;44.536;18.664;2022-12-29T07:54:39;203.80;;;142.95;;
52764;SDS011;38650;44.536;18.664;2022-12-29T07:57:06;236.57;;;157.25;;
52764;SDS011;38650;44.536;18.664;2022-12-29T07:59:32;292.52;;;209.68;;
52764;SDS011;38650;44.536;18.664;2022-12-29T08:01:59;261.50;;;166.30;;
52764;SDS011;38650;44.536;18.664;2022-12-29T08:04:24;422.75;;;249.60;;
52764;SDS011;38650;44.536;18.664;2022-12-29T08:06:51;378.25;;;228.95;;
52764;SDS011;38650;44.536;18.664;2022-12-29T08:09:17;286.50;;;196.88;;
52764;SDS011;38650;44.536;18.664;2022-12-29T08:11:43;215.88;;;158.48;;
52764;SDS011;38650;44.536;18.664;2022-12-29T08:14:09;188.35;;;139.23;;
52764;SDS011;38650;44.536;18.664;2022-12-29T08:16:35;165.25;;;123.18;;
52764;SDS011;38650;44.536;18.664;2022-12-29T08:19:01;152.05;;;116.38;;
52764;SDS011;38650;44.536;18.664;2022-12-29T08:21:30;235.80;;;148.60;;
52764;SDS011;38650;44.536;18.664;2022-12-29T08:23:56;178.60;;;125.88;;
52764;SDS011;38650;44.536;18.664;2022-12-29T08:26:22;144.82;;;108.50;;
52764;SDS011;38650;44.536;18.664;2022-12-29T08:28:48;118.32;;;87.00;;
52764;SDS011;38650;44.536;18.664;2022-12-29T08:31:13;89.43;;;65.30;;
52764;SDS011;38650;44.536;18.664;2022-12-29T08:33:39;77.20;;;55.45;;
52764;SDS011;38650;44.536;18.664;2022-12-29T08:36:05;61.95;;;48.40;;
52764;SDS011;38650;44.536;18.664;2022-12-29T08:38:32;61.10;;;44.05;;
52764;SDS011;38650;44.536;18.664;2022-12-29T08:40:58;77.47;;;55.72;;
52764;SDS011;38650;44.536;18.664;2022-12-29T08:43:26;118.82;;;82.40;;
52764;SDS011;38650;44.536;18.664;2022-12-29T08:45:51;111.28;;;81.45;;
52764;SDS011;38650;44.536;18.664;2022-12-29T08:48:17;122.20;;;86.75;;
52764;SDS011;38650;44.536;18.664;2022-12-29T08:50:45;137.38;;;92.72;;
52764;SDS011;38650;44.536;18.664;2022-12-29T08:53:12;120.72;;;85.15;;
52764;SDS011;38650;44.536;18.664;2022-12-29T08:55:40;114.15;;;78.93;;
52764;SDS011;38650;44.536;18.664;2022-12-29T08:58:10;125.57;;;86.95;;
52764;SDS011;38650;44.536;18.664;2022-12-29T09:00:39;131.63;;;90.40;;
52764;SDS011;38650;44.536;18.664;2022-12-29T09:03:08;129.82;;;89.10;;
52764;SDS011;38650;44.536;18.664;2022-12-29T09:05:33;117.88;;;84.85;;
52764;SDS011;38650;44.536;18.664;2022-12-29T09:07:59;135.55;;;92.30;;
52764;SDS011;38650;44.536;18.664;2022-12-29T09:10:25;142.25;;;96.85;;
52764;SDS011;38650;44.536;18.664;2022-12-29T09:12:50;124.88;;;90.57;;
52764;SDS011;38650;44.536;18.664;2022-12-29T09:15:16;117.57;;;87.45;;
52764;SDS011;38650;44.536;18.664;2022-12-29T09:17:42;120.18;;;85.18;;
52764;SDS011;38650;44.536;18.664;2022-12-29T09:20:15;101.18;;;78.68;;
52764;SDS011;38650;44.536;18.664;2022-12-29T09:22:43;100.90;;;80.07;;
52764;SDS011;38650;44.536;18.664;2022-12-29T09:25:09;104.60;;;79.72;;
52764;SDS011;38650;44.536;18.664;2022-12-29T09:27:36;118.43;;;89.70;;
52764;SDS011;38650;44.536;18.664;2022-12-29T09:30:06;108.75;;;81.97;;
52764;SDS011;38650;44.536;18.664;2022-12-29T09:32:34;102.10;;;78.72;;
52764;SDS011;38650;44.536;18.664;2022-12-29T09:35:00;104.15;;;79.40;;
52764;SDS011;38650;44.536;18.664;2022-12-29T09:37:26;91.55;;;68.30;;
52764;SDS011;38650;44.536;18.664;2022-12-29T09:39:52;79.97;;;61.33;;
52764;SDS011;38650;44.536;18.664;2022-12-29T09:47:41;76.07;;;59.92;;
52764;SDS011;38650;44.536;18.664;2022-12-29T09:55:51;87.55;;;72.10;;
52764;SDS011;38650;44.536;18.664;2022-12-29T09:58:25;94.45;;;80.78;;
52764;SDS011;38650;44.536;18.664;2022-12-29T10:01:21;89.60;;;76.93;;
52764;SDS011;38650;44.536;18.664;2022-12-29T10:04:06;91.38;;;75.72;;
52764;SDS011;38650;44.536;18.664;2022-12-29T10:07:10;81.88;;;72.35;;
52764;SDS011;38650;44.536;18.664;2022-12-29T10:10:16;91.47;;;77.30;;
52764;SDS011;38650;44.536;18.664;2022-12-29T10:24:02;71.63;;;63.35;;
52764;SDS011;38650;44.536;18.664;2022-12-29T10:26:36;74.10;;;65.85;;
52764;SDS011;38650;44.536;18.664;2022-12-29T10:29:06;77.57;;;68.95;;
52764;SDS011;38650;44.536;18.664;2022-12-29T10:34:19;88.90;;;77.15;;
52764;SDS011;38650;44.536;18.664;2022-12-29T10:36:54;95.15;;;83.32;;
52764;SDS011;38650;44.536;18.664;2022-12-29T10:39:47;85.97;;;76.75;;
52764;SDS011;38650;44.536;18.664;2022-12-29T10:42:26;91.88;;;80.47;;
52764;SDS011;38650;44.536;18.664;2022-12-29T10:44:57;101.68;;;87.13;;
52764;SDS011;38650;44.536;18.664;2022-12-29T10:47:25;98.85;;;82.68;;
52764;SDS011;38650;44.536;18.664;2022-12-29T10:49:54;109.38;;;90.47;;
52764;SDS011;38650;44.536;18.664;2022-12-29T10:52:23;101.68;;;87.75;;
52764;SDS011;38650;44.536;18.664;2022-12-29T10:55:02;107.55;;;93.15;;
52764;SDS011;38650;44.536;18.664;2022-12-29T10:57:34;105.32;;;87.35;;
52764;SDS011;38650;44.536;18.664;2022-12-29T11:00:12;92.85;;;81.50;;
52764;SDS011;38650;44.536;18.664;2022-12-29T11:05:19;104.95;;;85.38;;
52764;SDS011;38650;44.536;18.664;2022-12-29T11:07:53;98.60;;;80.10;;
52764;SDS011;38650;44.536;18.664;2022-12-29T11:12:59;81.70;;;71.80;;
52764;SDS011;38650;44.536;18.664;2022-12-29T11:15:44;73.75;;;65.65;;
52764;SDS011;38650;44.536;18.664;2022-12-29T11:20:46;65.68;;;56.30;;
52764;SDS011;38650;44.536;18.664;2022-12-29T11:26:40;58.95;;;52.38;;
52764;SDS011;38650;44.536;18.664;2022-12-29T11:34:16;50.78;;;45.40;;
52764;SDS011;38650;44.536;18.664;2022-12-29T11:37:04;42.97;;;36.25;;
52764;SDS011;38650;44.536;18.664;2022-12-29T11:39:41;36.60;;;32.75;;
52764;SDS011;38650;44.536;18.664;2022-12-29T11:42:15;32.83;;;29.45;;
52764;SDS011;38650;44.536;18.664;2022-12-29T11:44:47;30.45;;;27.27;;
52764;SDS011;38650;44.536;18.664;2022-12-29T11:47:30;29.35;;;26.20;;
52764;SDS011;38650;44.536;18.664;2022-12-29T11:50:01;31.48;;;27.92;;
52764;SDS011;38650;44.536;18.664;2022-12-29T11:52:31;27.97;;;25.07;;
52764;SDS011;38650;44.536;18.664;2022-12-29T11:55:00;32.53;;;28.02;;
52764;SDS011;38650;44.536;18.664;2022-12-29T11:57:33;35.08;;;30.88;;
52764;SDS011;38650;44.536;18.664;2022-12-29T12:00:02;30.27;;;27.17;;
52764;SDS011;38650;44.536;18.664;2022-12-29T12:02:42;28.80;;;25.05;;
52764;SDS011;38650;44.536;18.664;2022-12-29T12:07:49;24.38;;;21.77;;
52764;SDS011;38650;44.536;18.664;2022-12-29T12:10:21;24.05;;;21.55;;
52764;SDS011;38650;44.536;18.664;2022-12-29T12:12:51;22.63;;;20.25;;
52764;SDS011;38650;44.536;18.664;2022-12-29T12:15:46;20.95;;;18.77;;
52764;SDS011;38650;44.536;18.664;2022-12-29T12:18:37;18.60;;;16.65;;
52764;SDS011;38650;44.536;18.664;2022-12-29T12:21:05;26.33;;;21.65;;
52764;SDS011;38650;44.536;18.664;2022-12-29T12:23:43;26.40;;;23.13;;
52764;SDS011;38650;44.536;18.664;2022-12-29T12:26:20;24.83;;;22.05;;
52764;SDS011;38650;44.536;18.664;2022-12-29T12:28:59;25.23;;;22.48;;
52764;SDS011;38650;44.536;18.664;2022-12-29T12:31:56;28.13;;;25.08;;
52764;SDS011;38650;44.536;18.664;2022-12-29T12:34:33;27.25;;;22.30;;
52764;SDS011;38650;44.536;18.664;2022-12-29T12:48:17;41.83;;;34.95;;
52764;SDS011;38650;44.536;18.664;2022-12-29T12:58:59;90.80;;;65.95;;
52764;SDS011;38650;44.536;18.664;2022-12-29T13:07:27;98.30;;;64.80;;
52764;SDS011;38650;44.536;18.664;2022-12-29T13:16:02;71.80;;;52.92;;
52764;SDS011;38650;44.536;18.664;2022-12-29T13:19:18;64.78;;;46.83;;
52764;SDS011;38650;44.536;18.664;2022-12-29T13:30:57;76.15;;;54.90;;
52764;SDS011;38650;44.536;18.664;2022-12-29T13:36:42;60.53;;;46.15;;
52764;SDS011;38650;44.536;18.664;2022-12-29T13:41:49;70.47;;;53.00;;
52764;SDS011;38650;44.536;18.664;2022-12-29T13:44:21;73.45;;;54.65;;
52764;SDS011;38650;44.536;18.664;2022-12-29T13:46:51;87.40;;;62.47;;
52764;SDS011;38650;44.536;18.664;2022-12-29T13:49:22;85.55;;;64.22;;
52764;SDS011;38650;44.536;18.664;2022-12-29T13:51:52;92.53;;;65.53;;
52764;SDS011;38650;44.536;18.664;2022-12-29T14:00:15;107.20;;;81.28;;
52764;SDS011;38650;44.536;18.664;2022-12-29T14:07:43;92.50;;;68.97;;
52764;SDS011;38650;44.536;18.664;2022-12-29T14:13:16;71.90;;;57.55;;
52764;SDS011;38650;44.536;18.664;2022-12-29T14:15:46;55.03;;;45.53;;
52764;SDS011;38650;44.536;18.664;2022-12-29T14:18:17;51.08;;;42.38;;
52764;SDS011;38650;44.536;18.664;2022-12-29T14:20:59;42.47;;;37.27;;
52764;SDS011;38650;44.536;18.664;2022-12-29T14:23:40;57.30;;;45.97;;
52764;SDS011;38650;44.536;18.664;2022-12-29T14:28:41;76.07;;;58.05;;
52764;SDS011;38650;44.536;18.664;2022-12-29T14:39:25;59.20;;;45.07;;
52764;SDS011;38650;44.536;18.664;2022-12-29T14:42:06;44.72;;;35.05;;
52764;SDS011;38650;44.536;18.664;2022-12-29T14:44:47;52.33;;;40.60;;
52764;SDS011;38650;44.536;18.664;2022-12-29T14:47:17;61.15;;;45.50;;
52764;SDS011;38650;44.536;18.664;2022-12-29T14:49:47;58.42;;;43.85;;
52764;SDS011;38650;44.536;18.664;2022-12-29T14:52:20;44.92;;;36.55;;
52764;SDS011;38650;44.536;18.664;2022-12-29T14:57:37;52.53;;;42.25;;
52764;SDS011;38650;44.536;18.664;2022-12-29T15:00:16;45.53;;;34.35;;
52764;SDS011;38650;44.536;18.664;2022-12-29T15:02:49;44.28;;;35.65;;
52764;SDS011;38650;44.536;18.664;2022-12-29T15:05:41;36.05;;;29.45;;
52764;SDS011;38650;44.536;18.664;2022-12-29T15:08:07;55.38;;;42.10;;
52764;SDS011;38650;44.536;18.664;2022-12-29T15:10:50;80.10;;;54.67;;
52764;SDS011;38650;44.536;18.664;2022-12-29T15:13:23;53.55;;;43.50;;
52764;SDS011;38650;44.536;18.664;2022-12-29T15:15:58;48.65;;;38.92;;
52764;SDS011;38650;44.536;18.664;2022-12-29T15:18:28;68.13;;;47.88;;
52764;SDS011;38650;44.536;18.664;2022-12-29T15:20:57;160.25;;;90.75;;
52764;SDS011;38650;44.536;18.664;2022-12-29T15:23:29;130.67;;;87.37;;
52764;SDS011;38650;44.536;18.664;2022-12-29T15:25:57;101.03;;;68.90;;
52764;SDS011;38650;44.536;18.664;2022-12-29T15:28:36;120.28;;;79.45;;
52764;SDS011;38650;44.536;18.664;2022-12-29T15:31:10;98.57;;;74.80;;
52764;SDS011;38650;44.536;18.664;2022-12-29T15:33:40;114.03;;;85.80;;
52764;SDS011;38650;44.536;18.664;2022-12-29T15:36:12;144.18;;;105.20;;
52764;SDS011;38650;44.536;18.664;2022-12-29T15:38:43;170.35;;;119.97;;
52764;SDS011;38650;44.536;18.664;2022-12-29T15:41:19;208.40;;;137.05;;
52764;SDS011;38650;44.536;18.664;2022-12-29T15:46:49;233.18;;;161.85;;
52764;SDS011;38650;44.536;18.664;2022-12-29T15:49:15;236.23;;;165.63;;
52764;SDS011;38650;44.536;18.664;2022-12-29T15:51:41;202.85;;;145.90;;
52764;SDS011;38650;44.536;18.664;2022-12-29T15:54:18;321.45;;;204.13;;
52764;SDS011;38650;44.536;18.664;2022-12-29T15:56:46;242.25;;;169.00;;
52764;SDS011;38650;44.536;18.664;2022-12-29T15:59:29;236.57;;;160.38;;
52764;SDS011;38650;44.536;18.664;2022-12-29T16:01:57;304.55;;;196.60;;
52764;SDS011;38650;44.536;18.664;2022-12-29T16:04:25;284.35;;;191.48;;
52764;SDS011;38650;44.536;18.664;2022-12-29T16:06:59;242.20;;;166.30;;
52764;SDS011;38650;44.536;18.664;2022-12-29T16:09:34;275.48;;;179.23;;
52764;SDS011;38650;44.536;18.664;2022-12-29T16:12:05;217.90;;;148.35;;
52764;SDS011;38650;44.536;18.664;2022-12-29T16:17:12;238.05;;;160.65;;
52764;SDS011;38650;44.536;18.664;2022-12-29T16:19:41;308.52;;;214.00;;
52764;SDS011;38650;44.536;18.664;2022-12-29T16:22:29;313.60;;;217.68;;
52764;SDS011;38650;44.536;18.664;2022-12-29T16:24:59;262.58;;;181.40;;
52764;SDS011;38650;44.536;18.664;2022-12-29T16:29:57;301.92;;;205.25;;
52764;SDS011;38650;44.536;18.664;2022-12-29T16:32:30;272.35;;;188.48;;
52764;SDS011;38650;44.536;18.664;2022-12-29T16:35:10;278.63;;;200.52;;
52764;SDS011;38650;44.536;18.664;2022-12-29T16:37:36;261.77;;;183.98;;
52764;SDS011;38650;44.536;18.664;2022-12-29T16:42:47;198.00;;;149.00;;
52764;SDS011;38650;44.536;18.664;2022-12-29T16:47:49;170.93;;;124.68;;
52764;SDS011;38650;44.536;18.664;2022-12-29T16:51:04;126.05;;;96.15;;
52764;SDS011;38650;44.536;18.664;2022-12-29T16:53:37;116.75;;;91.90;;
52764;SDS011;38650;44.536;18.664;2022-12-29T16:56:17;132.73;;;101.57;;
52764;SDS011;38650;44.536;18.664;2022-12-29T16:58:48;107.13;;;84.68;;
52764;SDS011;38650;44.536;18.664;2022-12-29T17:01:17;96.47;;;76.90;;
52764;SDS011;38650;44.536;18.664;2022-12-29T17:03:50;101.57;;;80.85;;
52764;SDS011;38650;44.536;18.664;2022-12-29T17:06:19;83.53;;;66.70;;
52764;SDS011;38650;44.536;18.664;2022-12-29T17:08:46;81.65;;;66.63;;
52764;SDS011;38650;44.536;18.664;2022-12-29T17:16:53;90.72;;;68.13;;
52764;SDS011;38650;44.536;18.664;2022-12-29T17:19:20;99.35;;;76.45;;
52764;SDS011;38650;44.536;18.664;2022-12-29T17:21:57;138.48;;;99.43;;
52764;SDS011;38650;44.536;18.664;2022-12-29T17:24:24;108.60;;;82.18;;